Terminal Aerodrome Forecast
Issued by NWS Charleston, WV

Home | Current Version | Previous Version | Text Only | Print | Product List | Glossary On
Versions: 1 2 3 4 5 6 7 8 9 10 11 12 13 14 15 16 17 18 19 20 21 22 23
000
FTUS41 KRLX 042031 AAB
TAFCRW
TAF AMD
KCRW 042031Z 0421/0518 24006KT P6SM VCSH BKN040
     FM042130 25005KT 3SM SHRA VCTS OVC040CB
     FM042300 25004KT 5SM SHRA VCTS OVC030CB
     FM050300 25005KT 3SM SHRA BR OVC025
     FM050500 27004KT P6SM BKN035
     FM050900 28003KT 5SM BR BKN035
     FM051300 28004KT P6SM BKN025
     FM051500 27005KT 2SM SHRA BR OVC008=

USA.gov is the U.S. government's official web portal to all federal, state and local government web resources and services.